Time;durP1;ratioP1;P1;durP2;ratioP2;P2;SDS_P1;SDS_P2;PMS_P1;PMS_P2;Temp;Humidity;BMP_temperature;BMP_pressure;BME280_temperature;BME280_humidity;BME280_pressure;Samples;Min_cycle;Max_cycle;Signal;HPM_P1;HPM_P2
2021/11/26 00:01:43;;;;;;;11.05;3.65;;;;;;;;;;5017779;28;20053;-55
2021/11/26 00:04:10;;;;;;;7.68;2.58;;;;;;;;;;5001160;28;20061;-53
2021/11/26 00:06:36;;;;;;;10.60;2.38;;;;;;;;;;4991485;28;20094;-57
2021/11/26 00:09:04;;;;;;;14.27;2.28;;;;;;;;;;4988902;28;20058;-53
2021/11/26 00:11:31;;;;;;;8.45;1.90;;;;;;;;;;4990548;28;20049;-54
2021/11/26 00:14:04;;;;;;;4.68;1.60;;;;;;;;;;5006562;28;20057;-56
2021/11/26 00:16:35;;;;;;;7.57;2.08;;;;;;;;;;4990854;28;20053;-56
2021/11/26 00:19:08;;;;;;;10.50;1.98;;;;;;;;;;4986273;28;20045;-55
2021/11/26 00:21:36;;;;;;;5.25;2.05;;;;;;;;;;4992637;28;20058;-57
2021/11/26 00:24:02;;;;;;;3.72;1.52;;;;;;;;;;4996825;28;20042;-56
2021/11/26 00:26:30;;;;;;;6.65;2.13;;;;;;;;;;5005520;28;20052;-56
2021/11/26 00:28:56;;;;;;;5.37;1.67;;;;;;;;;;4996531;28;20053;-54
2021/11/26 00:31:23;;;;;;;6.07;1.75;;;;;;;;;;4985776;28;20049;-55
2021/11/26 00:33:50;;;;;;;4.70;1.60;;;;;;;;;;5009458;28;20046;-50
2021/11/26 00:36:16;;;;;;;6.57;1.70;;;;;;;;;;5008511;28;20036;-54
2021/11/26 00:38:43;;;;;;;4.53;1.50;;;;;;;;;;5003818;28;20033;-54
2021/11/26 00:41:09;;;;;;;3.85;1.48;;;;;;;;;;5005052;28;20052;-54
2021/11/26 00:43:37;;;;;;;8.23;2.05;;;;;;;;;;4994685;28;20050;-51
2021/11/26 00:46:04;;;;;;;6.17;1.47;;;;;;;;;;4982242;28;20038;-56
2021/11/26 00:48:30;;;;;;;4.00;1.63;;;;;;;;;;4981102;28;20049;-55
2021/11/26 00:50:57;;;;;;;3.50;1.40;;;;;;;;;;5005195;28;20037;-54
2021/11/26 00:53:23;;;;;;;6.05;1.63;;;;;;;;;;5004445;28;20622;-51
2021/11/26 00:55:50;;;;;;;7.10;1.90;;;;;;;;;;4980488;28;20039;-53
2021/11/26 00:58:16;;;;;;;7.60;1.80;;;;;;;;;;4986428;28;20216;-53
2021/11/26 01:00:44;;;;;;;4.82;1.75;;;;;;;;;;4982422;28;20124;-54
2021/11/26 01:03:10;;;;;;;6.70;1.67;;;;;;;;;;5007313;28;20117;-56
2021/11/26 01:05:37;;;;;;;4.43;1.58;;;;;;;;;;5013034;28;20060;-55
2021/11/26 01:08:06;;;;;;;8.73;1.70;;;;;;;;;;5041883;28;20041;-56
2021/11/26 01:10:32;;;;;;;7.80;1.38;;;;;;;;;;5014329;28;20042;-51
2021/11/26 01:12:59;;;;;;;4.93;1.35;;;;;;;;;;5013140;28;20131;-56
2021/11/26 01:15:26;;;;;;;2.50;1.08;;;;;;;;;;4998211;28;20124;-54
2021/11/26 01:17:54;;;;;;;4.90;1.08;;;;;;;;;;5002405;28;20046;-55
2021/11/26 01:20:22;;;;;;;4.57;1.25;;;;;;;;;;5001012;28;20037;-55
2021/11/26 01:22:49;;;;;;;2.17;0.90;;;;;;;;;;5018869;28;20078;-52
2021/11/26 01:25:16;;;;;;;3.63;1.10;;;;;;;;;;5013503;28;20108;-53
2021/11/26 01:27:43;;;;;;;2.88;0.95;;;;;;;;;;4985431;28;20042;-56
2021/11/26 01:30:14;;;;;;;2.88;1.10;;;;;;;;;;4981415;28;20101;-57
2021/11/26 01:32:40;;;;;;;1.35;0.80;;;;;;;;;;5002123;28;20042;-52
2021/11/26 01:35:09;;;;;;;5.70;0.98;;;;;;;;;;5001227;28;20066;-55
2021/11/26 01:37:35;;;;;;;1.70;0.80;;;;;;;;;;5040163;28;20049;-56
2021/11/26 01:40:02;;;;;;;3.50;1.00;;;;;;;;;;5023796;28;20119;-54
2021/11/26 01:42:28;;;;;;;2.33;1.00;;;;;;;;;;4996242;28;20119;-53
2021/11/26 01:44:54;;;;;;;3.92;1.25;;;;;;;;;;4986245;28;20057;-54
2021/11/26 01:47:22;;;;;;;5.40;1.00;;;;;;;;;;4992569;28;20045;-54
2021/11/26 01:49:48;;;;;;;3.00;0.82;;;;;;;;;;5001776;28;20112;-54
2021/11/26 01:52:16;;;;;;;2.13;0.75;;;;;;;;;;4980945;28;20044;-54
2021/11/26 01:54:43;;;;;;;1.90;0.80;;;;;;;;;;4980787;28;20079;-51
2021/11/26 01:57:09;;;;;;;2.83;0.60;;;;;;;;;;4999721;28;20076;-51
2021/11/26 01:59:36;;;;;;;3.58;0.80;;;;;;;;;;4997992;28;20041;-54
2021/11/26 02:02:03;;;;;;;7.03;0.50;;;;;;;;;;4998318;28;20168;-52
2021/11/26 02:04:29;;;;;;;0.70;0.50;;;;;;;;;;5002913;28;20038;-52
2021/11/26 02:06:55;;;;;;;2.70;0.68;;;;;;;;;;4997296;28;20038;-54
2021/11/26 02:09:23;;;;;;;2.50;0.60;;;;;;;;;;4997701;28;20037;-53
2021/11/26 02:11:50;;;;;;;3.80;0.68;;;;;;;;;;5015482;28;20096;-54
2021/11/26 02:14:16;;;;;;;3.40;0.57;;;;;;;;;;4985066;28;20038;-56
2021/11/26 02:16:44;;;;;;;3.40;0.65;;;;;;;;;;5001740;28;20133;-54
2021/11/26 02:19:12;;;;;;;1.83;0.70;;;;;;;;;;4999373;28;20038;-56
2021/11/26 02:21:40;;;;;;;3.00;1.23;;;;;;;;;;5001031;28;20046;-54
2021/11/26 02:24:06;;;;;;;4.97;1.20;;;;;;;;;;4998746;28;20033;-53
2021/11/26 02:26:35;;;;;;;1.95;1.02;;;;;;;;;;5022034;28;20105;-55
2021/11/26 02:29:01;;;;;;;1.20;0.60;;;;;;;;;;4998981;28;20042;-54
2021/11/26 02:31:28;;;;;;;1.92;0.88;;;;;;;;;;5002021;28;20057;-54
2021/11/26 02:33:54;;;;;;;5.53;1.10;;;;;;;;;;4997916;28;20040;-56
2021/11/26 02:36:20;;;;;;;2.17;1.17;;;;;;;;;;5002806;28;20053;-54
2021/11/26 02:38:49;;;;;;;2.03;0.90;;;;;;;;;;4989922;28;20104;-54
2021/11/26 02:41:16;;;;;;;1.67;0.95;;;;;;;;;;4983022;28;20042;-54
2021/11/26 02:43:42;;;;;;;6.20;1.15;;;;;;;;;;4980844;28;20088;-57
2021/11/26 02:46:09;;;;;;;5.22;1.20;;;;;;;;;;4982998;28;20066;-56
2021/11/26 02:48:35;;;;;;;3.63;0.90;;;;;;;;;;4986360;28;20046;-56
2021/11/26 02:51:02;;;;;;;3.47;1.20;;;;;;;;;;5003528;28;20042;-55
2021/11/26 02:53:28;;;;;;;3.80;1.00;;;;;;;;;;5000054;28;20050;-57
2021/11/26 02:55:56;;;;;;;3.05;1.10;;;;;;;;;;4985097;28;20042;-54
2021/11/26 02:58:24;;;;;;;2.10;1.00;;;;;;;;;;4983162;28;20053;-55
2021/11/26 03:00:52;;;;;;;3.05;0.90;;;;;;;;;;5000084;28;20299;-54
2021/11/26 03:03:19;;;;;;;;;;;;;;;;;;5033664;28;20037;-56
2021/11/26 03:05:45;;;;;;;1.92;0.82;;;;;;;;;;4999720;28;19933;-56
2021/11/26 03:08:12;;;;;;;4.30;1.00;;;;;;;;;;5003521;28;20057;-56
2021/11/26 03:10:39;;;;;;;3.60;1.08;;;;;;;;;;5000532;28;20118;-55
2021/11/26 03:13:08;;;;;;;3.33;1.02;;;;;;;;;;5004912;28;20066;-55
2021/11/26 03:15:36;;;;;;;2.38;1.10;;;;;;;;;;5010166;28;20049;-55
2021/11/26 03:18:03;;;;;;;1.33;0.85;;;;;;;;;;5001841;28;20057;-53
2021/11/26 03:20:29;;;;;;;6.43;1.23;;;;;;;;;;5009162;28;20041;-51
2021/11/26 03:22:56;;;;;;;1.38;0.82;;;;;;;;;;5024665;28;20041;-55
2021/11/26 03:25:23;;;;;;;3.80;1.00;;;;;;;;;;5020039;28;20034;-54
2021/11/26 03:27:50;;;;;;;2.80;1.02;;;;;;;;;;5015257;28;20044;-53
2021/11/26 03:30:20;;;;;;;3.22;1.73;;;;;;;;;;5026731;28;20054;-56
2021/11/26 03:32:48;;;;;;;2.47;0.90;;;;;;;;;;5000178;28;20030;-50
2021/11/26 03:35:15;;;;;;;4.30;1.00;;;;;;;;;;5001180;28;20070;-50
2021/11/26 03:37:42;;;;;;;2.88;0.90;;;;;;;;;;5006316;28;20120;-57
2021/11/26 03:40:10;;;;;;;1.90;0.88;;;;;;;;;;5002857;28;20045;-52
2021/11/26 03:42:36;;;;;;;2.87;0.90;;;;;;;;;;5026354;28;20033;-53
2021/11/26 03:45:03;;;;;;;1.00;0.70;;;;;;;;;;5024773;28;20330;-52
2021/11/26 03:47:32;;;;;;;1.40;0.60;;;;;;;;;;5014139;28;20038;-54
2021/11/26 03:49:58;;;;;;;1.60;0.70;;;;;;;;;;5022719;28;20038;-53
2021/11/26 03:52:24;;;;;;;1.52;0.63;;;;;;;;;;5016077;28;20049;-52
2021/11/26 03:54:51;;;;;;;1.27;0.68;;;;;;;;;;5006075;28;20049;-56
2021/11/26 03:57:18;;;;;;;1.45;0.52;;;;;;;;;;5013819;28;20045;-55
2021/11/26 03:59:44;;;;;;;2.05;0.80;;;;;;;;;;5025135;28;20072;-56
2021/11/26 04:02:10;;;;;;;3.15;0.80;;;;;;;;;;5010134;28;20038;-52
2021/11/26 04:04:38;;;;;;;4.65;0.75;;;;;;;;;;5005371;28;20042;-54
2021/11/26 04:07:05;;;;;;;3.13;0.77;;;;;;;;;;4990587;28;20127;-51
2021/11/26 04:09:32;;;;;;;2.58;0.70;;;;;;;;;;5005742;28;20090;-53
2021/11/26 04:11:59;;;;;;;3.60;0.63;;;;;;;;;;4998449;28;20064;-57
2021/11/26 04:14:25;;;;;;;1.75;0.70;;;;;;;;;;4987355;28;20150;-54
2021/11/26 04:16:53;;;;;;;3.83;0.70;;;;;;;;;;5001830;28;20054;-53
2021/11/26 04:19:21;;;;;;;2.10;0.60;;;;;;;;;;5007032;28;20104;-57
2021/11/26 04:21:49;;;;;;;5.05;0.70;;;;;;;;;;5001864;28;20042;-55
2021/11/26 04:24:15;;;;;;;3.30;0.70;;;;;;;;;;5005054;28;20063;-52
2021/11/26 04:26:42;;;;;;;1.27;0.50;;;;;;;;;;5011949;28;20038;-52
2021/11/26 04:29:08;;;;;;;3.97;0.60;;;;;;;;;;5000617;28;20547;-54
2021/11/26 04:31:35;;;;;;;6.22;1.25;;;;;;;;;;5005523;28;20041;-55
2021/11/26 04:34:01;;;;;;;0.95;0.45;;;;;;;;;;5001882;28;20042;-54
2021/11/26 04:36:28;;;;;;;0.45;0.40;;;;;;;;;;5005661;28;20099;-54
2021/11/26 04:38:57;;;;;;;1.02;0.52;;;;;;;;;;5019532;28;20297;-54
2021/11/26 04:41:24;;;;;;;2.08;0.60;;;;;;;;;;5004101;28;20123;-56
2021/11/26 04:43:50;;;;;;;1.65;0.68;;;;;;;;;;5002223;28;20104;-56
2021/11/26 04:46:17;;;;;;;2.88;0.60;;;;;;;;;;5005529;28;20030;-56
2021/11/26 04:48:45;;;;;;;1.55;0.50;;;;;;;;;;5002381;28;20048;-54
2021/11/26 04:51:12;;;;;;;2.97;0.80;;;;;;;;;;4991173;28;20065;-51
2021/11/26 04:53:38;;;;;;;1.83;0.55;;;;;;;;;;5002271;28;20042;-56
2021/11/26 04:56:06;;;;;;;4.03;0.50;;;;;;;;;;5002177;28;20127;-54
2021/11/26 04:58:35;;;;;;;0.80;0.40;;;;;;;;;;4986614;28;20046;-54
2021/11/26 05:01:02;;;;;;;2.10;0.50;;;;;;;;;;5002098;28;20054;-56
2021/11/26 05:03:28;;;;;;;1.40;0.60;;;;;;;;;;5008704;28;20034;-56
2021/11/26 05:05:54;;;;;;;1.45;0.60;;;;;;;;;;5022559;28;20111;-53
2021/11/26 05:08:23;;;;;;;1.10;0.57;;;;;;;;;;5024798;28;20060;-54
2021/11/26 05:10:52;;;;;;;0.80;0.52;;;;;;;;;;4993172;28;20046;-55
2021/11/26 05:13:20;;;;;;;2.00;0.60;;;;;;;;;;4999172;28;20053;-52
2021/11/26 05:15:47;;;;;;;3.65;0.60;;;;;;;;;;5001183;28;20054;-54
2021/11/26 05:18:14;;;;;;;10.32;0.93;;;;;;;;;;4983746;28;20042;-56
2021/11/26 05:20:40;;;;;;;2.10;0.73;;;;;;;;;;5009404;28;20131;-55
2021/11/26 05:23:07;;;;;;;4.88;0.80;;;;;;;;;;5023465;28;20064;-54
2021/11/26 05:25:33;;;;;;;4.45;0.90;;;;;;;;;;5009647;28;20100;-54
2021/11/26 05:28:00;;;;;;;1.15;0.57;;;;;;;;;;5002871;28;20049;-56
2021/11/26 05:30:28;;;;;;;1.00;0.57;;;;;;;;;;4997521;28;20034;-57
2021/11/26 05:32:55;;;;;;;4.43;0.50;;;;;;;;;;5002821;28;20061;-58
2021/11/26 05:35:21;;;;;;;2.08;0.60;;;;;;;;;;5006941;28;20038;-57
2021/11/26 05:37:48;;;;;;;2.88;0.60;;;;;;;;;;5025041;28;20051;-56
2021/11/26 05:40:15;;;;;;;4.53;0.68;;;;;;;;;;5027557;28;20074;-56
2021/11/26 05:42:43;;;;;;;1.33;0.50;;;;;;;;;;4984715;28;20050;-57
2021/11/26 05:45:10;;;;;;;1.92;0.60;;;;;;;;;;4986611;28;20042;-52
2021/11/26 05:47:39;;;;;;;3.50;1.10;;;;;;;;;;5023154;28;20126;-55
2021/11/26 05:50:07;;;;;;;2.30;0.68;;;;;;;;;;5037691;28;20045;-54
2021/11/26 05:52:33;;;;;;;4.65;0.80;;;;;;;;;;4996976;28;20054;-53
2021/11/26 05:55:00;;;;;;;1.50;0.63;;;;;;;;;;4995398;28;20053;-52
2021/11/26 05:57:27;;;;;;;4.50;0.70;;;;;;;;;;4985109;28;20042;-52
2021/11/26 05:59:53;;;;;;;1.48;0.77;;;;;;;;;;4984465;28;20120;-54
2021/11/26 06:02:20;;;;;;;3.75;0.90;;;;;;;;;;5013741;28;20052;-54
2021/11/26 06:04:48;;;;;;;7.80;0.77;;;;;;;;;;5005463;28;20037;-52
2021/11/26 06:07:14;;;;;;;2.83;1.13;;;;;;;;;;4999480;28;20037;-50
2021/11/26 06:09:41;;;;;;;2.42;0.82;;;;;;;;;;5005179;28;20049;-55
2021/11/26 06:12:09;;;;;;;3.08;0.85;;;;;;;;;;4991522;28;20034;-56
2021/11/26 06:14:35;;;;;;;3.90;0.98;;;;;;;;;;4987285;28;20092;-59
2021/11/26 06:17:02;;;;;;;5.68;0.90;;;;;;;;;;4982683;28;20050;-56
2021/11/26 06:19:28;;;;;;;2.67;1.05;;;;;;;;;;4983771;28;20057;-56
2021/11/26 06:21:56;;;;;;;3.20;0.93;;;;;;;;;;4981701;28;20062;-56
2021/11/26 06:24:23;;;;;;;4.60;0.70;;;;;;;;;;4984212;28;20052;-52
2021/11/26 06:26:49;;;;;;;1.48;0.75;;;;;;;;;;4982356;28;20318;-54
2021/11/26 06:29:16;;;;;;;6.57;1.25;;;;;;;;;;5001840;28;20049;-57
2021/11/26 06:31:42;;;;;;;8.35;1.70;;;;;;;;;;4981770;28;20584;-57
2021/11/26 06:34:09;;;;;;;2.20;1.00;;;;;;;;;;4990876;28;20290;-56
2021/11/26 06:36:37;;;;;;;4.97;1.65;;;;;;;;;;4983768;28;20046;-56
2021/11/26 06:39:05;;;;;;;5.60;1.20;;;;;;;;;;4998787;28;20101;-57
2021/11/26 06:41:32;;;;;;;;;;;;;;;;;;5004852;28;20050;-55
2021/11/26 06:43:58;;;;;;;3.08;1.00;;;;;;;;;;4999804;28;19922;-56
2021/11/26 06:46:25;;;;;;;2.65;1.10;;;;;;;;;;5000035;28;20038;-57
2021/11/26 06:48:52;;;;;;;3.85;1.08;;;;;;;;;;4996908;28;20053;-54
2021/11/26 06:51:19;;;;;;;6.50;1.60;;;;;;;;;;4999660;28;20034;-54
2021/11/26 06:53:45;;;;;;;7.55;1.40;;;;;;;;;;4980829;28;20049;-58
2021/11/26 06:56:13;;;;;;;2.10;0.90;;;;;;;;;;5000298;28;20050;-54
2021/11/26 06:58:40;;;;;;;3.55;1.10;;;;;;;;;;4987746;28;20053;-56
2021/11/26 07:01:07;;;;;;;4.55;1.10;;;;;;;;;;5003457;28;20045;-55
2021/11/26 07:03:33;;;;;;;6.53;0.95;;;;;;;;;;4994845;28;20038;-54
2021/11/26 07:06:00;;;;;;;5.07;1.05;;;;;;;;;;4984475;28;20052;-57
2021/11/26 07:08:30;;;;;;;3.03;0.88;;;;;;;;;;4995887;28;20050;-52
2021/11/26 07:10:57;;;;;;;5.75;1.23;;;;;;;;;;4986280;28;20065;-51
2021/11/26 07:13:25;;;;;;;6.55;1.17;;;;;;;;;;4969002;28;20081;-56
2021/11/26 07:15:51;;;;;;;9.33;1.30;;;;;;;;;;5003742;28;20089;-55
2021/11/26 07:18:20;;;;;;;9.80;1.85;;;;;;;;;;5003325;28;20116;-53
2021/11/26 07:20:46;;;;;;;10.90;1.23;;;;;;;;;;5018798;28;20235;-55
2021/11/26 07:23:13;;;;;;;4.25;1.40;;;;;;;;;;5007010;28;20038;-55
2021/11/26 07:25:40;;;;;;;7.15;1.10;;;;;;;;;;4986588;28;20034;-54
2021/11/26 07:28:07;;;;;;;2.10;0.93;;;;;;;;;;4986595;28;20123;-56
2021/11/26 07:30:35;;;;;;;8.65;1.83;;;;;;;;;;4983648;28;20173;-56
2021/11/26 07:33:01;;;;;;;8.80;1.53;;;;;;;;;;4971738;28;20053;-56
2021/11/26 07:35:28;;;;;;;7.22;1.42;;;;;;;;;;5004663;28;20037;-50
2021/11/26 07:37:54;;;;;;;7.22;1.48;;;;;;;;;;5006555;28;20041;-57
2021/11/26 07:40:21;;;;;;;6.22;1.95;;;;;;;;;;4996885;28;20124;-54
2021/11/26 07:42:47;;;;;;;9.25;2.55;;;;;;;;;;4985046;28;20135;-54
2021/11/26 07:45:14;;;;;;;6.30;1.83;;;;;;;;;;4988542;28;20112;-53
2021/11/26 07:47:43;;;;;;;7.03;1.40;;;;;;;;;;4983692;28;20050;-54
2021/11/26 07:50:12;;;;;;;8.48;1.85;;;;;;;;;;4988060;28;20042;-56
2021/11/26 07:52:39;;;;;;;7.03;1.70;;;;;;;;;;4984625;28;20067;-52
2021/11/26 07:55:06;;;;;;;10.15;2.53;;;;;;;;;;4988202;28;20057;-56
2021/11/26 07:57:34;;;;;;;6.88;1.98;;;;;;;;;;4992941;28;20125;-52
2021/11/26 08:00:00;;;;;;;6.57;1.98;;;;;;;;;;4990097;28;20046;-57
2021/11/26 08:02:26;;;;;;;4.22;1.73;;;;;;;;;;4989884;28;20091;-54
2021/11/26 08:04:54;;;;;;;5.95;2.03;;;;;;;;;;5015689;28;20034;-54
2021/11/26 08:07:21;;;;;;;14.37;2.53;;;;;;;;;;5011212;28;20057;-55
2021/11/26 08:09:47;;;;;;;7.88;1.90;;;;;;;;;;5034195;28;20266;-53
2021/11/26 08:12:14;;;;;;;7.45;2.08;;;;;;;;;;5011523;28;20033;-56
2021/11/26 08:14:40;;;;;;;10.65;2.22;;;;;;;;;;5029902;28;20061;-57
2021/11/26 08:17:07;;;;;;;7.38;2.10;;;;;;;;;;5030707;28;20042;-56
2021/11/26 08:19:34;;;;;;;6.55;1.90;;;;;;;;;;5013860;28;20120;-56
2021/11/26 08:22:02;;;;;;;11.38;3.25;;;;;;;;;;4999533;28;20041;-52
2021/11/26 08:24:28;;;;;;;8.57;2.85;;;;;;;;;;5005316;28;20482;-56
2021/11/26 08:26:56;;;;;;;11.00;2.67;;;;;;;;;;5013486;28;20062;-56
2021/11/26 08:29:22;;;;;;;10.60;1.88;;;;;;;;;;5004412;28;20034;-56
2021/11/26 08:31:48;;;;;;;10.65;2.40;;;;;;;;;;4987268;28;20049;-55
2021/11/26 08:34:15;;;;;;;7.00;1.85;;;;;;;;;;5004933;28;20064;-54
2021/11/26 08:36:42;;;;;;;6.00;1.77;;;;;;;;;;5002747;28;20045;-51
2021/11/26 08:39:10;;;;;;;8.43;2.22;;;;;;;;;;5005513;28;20116;-57
2021/11/26 08:41:37;;;;;;;;;;;;;;;;;;5005407;28;20065;-51
2021/11/26 08:44:04;;;;;;;8.25;2.03;;;;;;;;;;5000675;28;20102;-56
2021/11/26 08:46:31;;;;;;;8.40;2.20;;;;;;;;;;5022300;28;20034;-57
2021/11/26 08:48:57;;;;;;;8.07;2.38;;;;;;;;;;4985933;28;20054;-55
2021/11/26 08:51:27;;;;;;;11.13;2.03;;;;;;;;;;4985086;28;20042;-55
2021/11/26 08:53:53;;;;;;;13.93;2.15;;;;;;;;;;5000710;28;20064;-56
2021/11/26 08:56:24;;;;;;;15.45;2.55;;;;;;;;;;4986879;28;20038;-58
2021/11/26 08:58:50;;;;;;;10.35;2.60;;;;;;;;;;4981997;28;20043;-55
2021/11/26 09:01:17;;;;;;;16.20;3.67;;;;;;;;;;4987230;28;20030;-57
2021/11/26 09:03:45;;;;;;;12.57;2.63;;;;;;;;;;4983082;28;20117;-57
2021/11/26 09:06:11;;;;;;;14.30;2.53;;;;;;;;;;4987535;28;20030;-56
2021/11/26 09:08:38;;;;;;;7.32;2.45;;;;;;;;;;4983125;28;20038;-56
2021/11/26 09:11:04;;;;;;;15.20;3.00;;;;;;;;;;4985737;28;20042;-54
2021/11/26 09:13:32;;;;;;;14.75;2.50;;;;;;;;;;4983022;28;20041;-56
2021/11/26 09:15:58;;;;;;;15.48;2.72;;;;;;;;;;5001255;28;20057;-56
2021/11/26 09:18:25;;;;;;;9.65;2.67;;;;;;;;;;4972203;28;20034;-53
2021/11/26 09:20:53;;;;;;;14.93;3.22;;;;;;;;;;4985876;28;20078;-56
2021/11/26 09:23:20;;;;;;;18.67;3.17;;;;;;;;;;4985809;28;20064;-55
2021/11/26 09:25:47;;;;;;;18.88;2.55;;;;;;;;;;4983865;28;20050;-55
2021/11/26 09:28:13;;;;;;;7.88;2.22;;;;;;;;;;4984020;28;20108;-56
2021/11/26 09:30:41;;;;;;;10.23;2.63;;;;;;;;;;4997463;28;20440;-52
2021/11/26 09:33:08;;;;;;;15.07;3.13;;;;;;;;;;4999960;28;20042;-54
2021/11/26 09:35:35;;;;;;;13.00;2.67;;;;;;;;;;4981664;28;20140;-57
2021/11/26 09:38:02;;;;;;;13.05;2.80;;;;;;;;;;4982734;28;20034;-55
2021/11/26 09:40:29;;;;;;;9.68;2.67;;;;;;;;;;4980874;28;20161;-56
2021/11/26 09:42:55;;;;;;;14.95;2.83;;;;;;;;;;4985885;28;20124;-56
2021/11/26 09:45:26;;;;;;;9.07;2.30;;;;;;;;;;4982649;28;20030;-57
2021/11/26 09:47:54;;;;;;;10.63;2.20;;;;;;;;;;4974821;28;20035;-55
2021/11/26 09:50:22;;;;;;;8.57;1.83;;;;;;;;;;4984473;28;20105;-57
2021/11/26 09:52:49;;;;;;;6.97;2.00;;;;;;;;;;4968186;28;20110;-52
2021/11/26 09:55:17;;;;;;;6.90;1.85;;;;;;;;;;4971564;28;20093;-53
2021/11/26 09:57:45;;;;;;;9.25;2.30;;;;;;;;;;4985311;28;20046;-55
2021/11/26 10:00:13;;;;;;;10.75;2.42;;;;;;;;;;4982222;28;20685;-57
2021/11/26 10:02:50;;;;;;;11.77;3.40;;;;;;;;;;4985559;28;20100;-55
2021/11/26 10:05:18;;;;;;;11.70;1.85;;;;;;;;;;4997431;28;21382;-57
2021/11/26 10:07:45;;;;;;;5.87;1.83;;;;;;;;;;4985141;28;20035;-52
2021/11/26 10:10:13;;;;;;;12.15;2.33;;;;;;;;;;4981942;28;20038;-53
2021/11/26 10:12:41;;;;;;;11.80;2.55;;;;;;;;;;4994904;28;20122;-58
2021/11/26 10:15:07;;;;;;;10.35;1.90;;;;;;;;;;5004245;28;20045;-55
2021/11/26 10:17:34;;;;;;;8.23;1.88;;;;;;;;;;5001143;28;20034;-57
2021/11/26 10:20:02;;;;;;;8.05;2.20;;;;;;;;;;5005174;28;20136;-52
2021/11/26 10:22:31;;;;;;;6.27;1.53;;;;;;;;;;4984750;28;20050;-57
2021/11/26 10:25:00;;;;;;;7.38;1.90;;;;;;;;;;4985058;28;20393;-57
2021/11/26 10:27:40;;;;;;;7.72;1.83;;;;;;;;;;4993961;28;20050;-55
2021/11/26 10:30:17;;;;;;;10.88;1.85;;;;;;;;;;5004769;28;20149;-53
2021/11/26 10:32:54;;;;;;;6.00;1.70;;;;;;;;;;4986825;28;20042;-57
2021/11/26 10:35:21;;;;;;;10.15;1.80;;;;;;;;;;5004533;28;20098;-55
2021/11/26 10:38:00;;;;;;;7.30;1.30;;;;;;;;;;4997883;28;20070;-54
2021/11/26 10:40:27;;;;;;;8.20;1.45;;;;;;;;;;5003960;28;20177;-52
2021/11/26 10:42:54;;;;;;;8.93;1.63;;;;;;;;;;5016537;28;20046;-57
2021/11/26 10:45:32;;;;;;;6.85;1.58;;;;;;;;;;5007193;28;20046;-54
2021/11/26 10:48:19;;;;;;;6.88;1.63;;;;;;;;;;5017926;28;20058;-57
2021/11/26 10:50:56;;;;;;;7.97;1.75;;;;;;;;;;5007050;28;20153;-56
2021/11/26 10:59:01;;;;;;;6.32;1.90;;;;;;;;;;5002462;28;20082;-57
2021/11/26 11:01:28;;;;;;;7.68;1.55;;;;;;;;;;4987247;28;20058;-56
2021/11/26 11:03:55;;;;;;;9.82;2.22;;;;;;;;;;4974663;28;20104;-58
2021/11/26 11:06:22;;;;;;;4.90;1.60;;;;;;;;;;4986126;28;20038;-57
2021/11/26 11:09:00;;;;;;;7.20;1.65;;;;;;;;;;4993555;28;20038;-57
2021/11/26 11:11:26;;;;;;;5.82;1.50;;;;;;;;;;5005251;28;20034;-58
2021/11/26 11:13:54;;;;;;;9.65;1.83;;;;;;;;;;4994027;28;20115;-56
2021/11/26 11:16:21;;;;;;;6.93;1.40;;;;;;;;;;5006347;28;20049;-58
2021/11/26 11:18:47;;;;;;;9.82;1.80;;;;;;;;;;4995447;28;20286;-57
2021/11/26 11:21:14;;;;;;;6.65;1.65;;;;;;;;;;5005292;28;20058;-56
2021/11/26 11:23:41;;;;;;;4.45;1.38;;;;;;;;;;5004864;28;20124;-56
2021/11/26 11:26:09;;;;;;;8.23;1.70;;;;;;;;;;5007274;28;20053;-57
2021/11/26 11:28:36;;;;;;;10.55;1.60;;;;;;;;;;4999618;28;20038;-57
2021/11/26 11:31:03;;;;;;;12.90;2.38;;;;;;;;;;4986664;28;20042;-53
2021/11/26 11:33:30;;;;;;;9.90;2.10;;;;;;;;;;4991324;28;20046;-55
2021/11/26 11:35:59;;;;;;;9.98;2.45;;;;;;;;;;5005540;28;20115;-59
2021/11/26 11:38:25;;;;;;;6.75;1.70;;;;;;;;;;5006952;28;20057;-54
2021/11/26 11:40:59;;;;;;;4.70;1.40;;;;;;;;;;5001782;28;20061;-54
2021/11/26 11:43:27;;;;;;;12.63;2.08;;;;;;;;;;5006927;28;20038;-57
2021/11/26 11:45:54;;;;;;;4.97;1.30;;;;;;;;;;5003216;28;20046;-53
2021/11/26 11:48:26;;;;;;;5.88;1.42;;;;;;;;;;5007342;28;20069;-54
2021/11/26 11:50:53;;;;;;;8.27;1.80;;;;;;;;;;4989889;28;20034;-55
2021/11/26 11:53:20;;;;;;;5.70;1.35;;;;;;;;;;4987094;28;20034;-53
2021/11/26 11:55:47;;;;;;;6.00;1.52;;;;;;;;;;5001923;28;20042;-55
2021/11/26 11:58:16;;;;;;;7.78;1.65;;;;;;;;;;4987327;28;20050;-57
2021/11/26 12:00:44;;;;;;;5.20;1.10;;;;;;;;;;5003721;28;20151;-57
2021/11/26 12:03:13;;;;;;;8.30;1.50;;;;;;;;;;5006173;28;20025;-53
2021/11/26 12:05:39;;;;;;;11.43;1.85;;;;;;;;;;5002052;28;20045;-57
2021/11/26 12:08:08;;;;;;;5.00;1.38;;;;;;;;;;5005927;28;20045;-54
2021/11/26 12:10:45;;;;;;;5.72;1.60;;;;;;;;;;5016318;28;20034;-56
2021/11/26 12:13:22;;;;;;;10.70;1.58;;;;;;;;;;5023303;28;20357;-55
2021/11/26 12:15:51;;;;;;;6.53;1.27;;;;;;;;;;5001083;28;20141;-52
2021/11/26 12:18:17;;;;;;;7.57;1.38;;;;;;;;;;5005510;28;20038;-57
2021/11/26 12:20:47;;;;;;;4.30;1.42;;;;;;;;;;4998131;28;20112;-55
2021/11/26 12:23:16;;;;;;;5.80;1.92;;;;;;;;;;4987166;28;20049;-55
2021/11/26 12:25:50;;;;;;;4.60;1.70;;;;;;;;;;4986132;28;20061;-57
2021/11/26 12:28:19;;;;;;;6.68;1.50;;;;;;;;;;5038103;28;20033;-57
2021/11/26 12:30:46;;;;;;;6.55;1.48;;;;;;;;;;5019225;28;20057;-56
2021/11/26 12:33:21;;;;;;;6.22;1.88;;;;;;;;;;5024099;28;20040;-58
2021/11/26 12:35:58;;;;;;;10.30;1.70;;;;;;;;;;5041422;28;20134;-57
2021/11/26 12:38:36;;;;;;;5.75;1.95;;;;;;;;;;4986005;28;20042;-58
2021/11/26 12:41:02;;;;;;;3.92;1.52;;;;;;;;;;5001287;28;20056;-55
2021/11/26 12:43:38;;;;;;;5.65;1.77;;;;;;;;;;5021464;28;20049;-57
2021/11/26 12:46:05;;;;;;;3.40;1.30;;;;;;;;;;5022336;28;20053;-56
2021/11/26 12:48:36;;;;;;;7.38;2.10;;;;;;;;;;5002933;28;20189;-56
2021/11/26 12:51:05;;;;;;;5.90;1.30;;;;;;;;;;5005286;28;20073;-56
2021/11/26 12:53:32;;;;;;;5.18;1.33;;;;;;;;;;5034899;28;20049;-57
2021/11/26 12:55:59;;;;;;;7.88;1.75;;;;;;;;;;5025136;28;20056;-56
2021/11/26 12:58:27;;;;;;;7.43;1.80;;;;;;;;;;5021792;28;20046;-55
2021/11/26 13:00:55;;;;;;;4.60;1.63;;;;;;;;;;5005695;28;20053;-52
2021/11/26 13:03:21;;;;;;;5.05;1.67;;;;;;;;;;4995594;28;20120;-57
2021/11/26 13:05:53;;;;;;;4.82;1.80;;;;;;;;;;4985818;28;20050;-56
2021/11/26 13:08:20;;;;;;;6.75;1.65;;;;;;;;;;4990328;28;20088;-56
2021/11/26 13:10:46;;;;;;;8.05;1.85;;;;;;;;;;5004316;28;20034;-54
2021/11/26 13:13:13;;;;;;;5.35;1.75;;;;;;;;;;4987577;28;20157;-54
2021/11/26 13:15:40;;;;;;;3.30;1.48;;;;;;;;;;4990491;28;20112;-57
2021/11/26 13:18:13;;;;;;;8.27;1.40;;;;;;;;;;4989426;28;20038;-55
2021/11/26 13:20:41;;;;;;;6.15;1.85;;;;;;;;;;5006401;28;20037;-56
2021/11/26 13:23:12;;;;;;;6.87;1.73;;;;;;;;;;4998075;28;20042;-54
2021/11/26 13:25:40;;;;;;;3.17;1.33;;;;;;;;;;5003779;28;20038;-55
2021/11/26 13:28:07;;;;;;;6.38;1.60;;;;;;;;;;4981140;28;20066;-55
2021/11/26 13:30:35;;;;;;;3.08;1.20;;;;;;;;;;4985806;28;20038;-54
2021/11/26 13:33:06;;;;;;;4.55;1.55;;;;;;;;;;4985622;28;20116;-56
2021/11/26 13:35:33;;;;;;;4.95;1.70;;;;;;;;;;5021374;28;20057;-54
2021/11/26 13:38:02;;;;;;;7.63;1.33;;;;;;;;;;5004187;28;20060;-57
2021/11/26 13:40:37;;;;;;;4.88;1.40;;;;;;;;;;4980814;28;20049;-54
2021/11/26 13:43:04;;;;;;;5.70;1.30;;;;;;;;;;4985776;28;20239;-58
2021/11/26 13:45:31;;;;;;;3.33;1.20;;;;;;;;;;4996898;28;20038;-56
2021/11/26 13:47:58;;;;;;;5.63;1.25;;;;;;;;;;5003770;28;20030;-56
2021/11/26 13:50:25;;;;;;;5.40;1.67;;;;;;;;;;4999824;28;20041;-57
2021/11/26 13:52:51;;;;;;;6.40;2.30;;;;;;;;;;5003834;28;20041;-57
2021/11/26 13:55:18;;;;;;;5.57;2.22;;;;;;;;;;4987162;28;20030;-57
2021/11/26 13:57:46;;;;;;;6.43;1.58;;;;;;;;;;4982811;28;20050;-55
2021/11/26 14:00:14;;;;;;;5.18;1.70;;;;;;;;;;4997861;28;20042;-56
2021/11/26 14:02:50;;;;;;;4.20;1.52;;;;;;;;;;4972628;28;20030;-52
2021/11/26 14:05:26;;;;;;;4.88;1.65;;;;;;;;;;4977228;28;20433;-55
2021/11/26 14:07:59;;;;;;;4.07;1.67;;;;;;;;;;5020670;28;20053;-55
2021/11/26 14:10:26;;;;;;;4.68;1.75;;;;;;;;;;4987125;28;20045;-53
2021/11/26 14:12:58;;;;;;;5.45;1.52;;;;;;;;;;4977835;28;20038;-55
2021/11/26 14:15:24;;;;;;;5.32;1.60;;;;;;;;;;4981710;28;20038;-54
2021/11/26 14:17:51;;;;;;;4.03;1.80;;;;;;;;;;5003045;28;20058;-55
2021/11/26 14:20:23;;;;;;;6.20;1.83;;;;;;;;;;4980313;28;20091;-56
2021/11/26 14:22:49;;;;;;;6.32;1.67;;;;;;;;;;4984095;28;20066;-53
2021/11/26 14:25:16;;;;;;;7.18;1.58;;;;;;;;;;4979658;28;20050;-52
2021/11/26 14:27:44;;;;;;;4.03;1.48;;;;;;;;;;4965565;28;20038;-57
2021/11/26 14:30:14;;;;;;;3.95;1.20;;;;;;;;;;4997325;28;20128;-51
2021/11/26 14:32:51;;;;;;;4.15;1.58;;;;;;;;;;4980677;28;20046;-55
2021/11/26 14:35:20;;;;;;;5.35;1.98;;;;;;;;;;4982907;28;20074;-50
2021/11/26 14:37:48;;;;;;;3.47;1.67;;;;;;;;;;5015049;28;20041;-53
2021/11/26 14:40:16;;;;;;;5.97;1.47;;;;;;;;;;5004720;28;20107;-56
2021/11/26 14:42:43;;;;;;;4.97;1.90;;;;;;;;;;4986767;28;20035;-53
2021/11/26 14:45:09;;;;;;;7.05;2.67;;;;;;;;;;4987487;28;20045;-58
2021/11/26 14:47:39;;;;;;;3.97;1.52;;;;;;;;;;4982665;28;20030;-54
2021/11/26 14:50:15;;;;;;;3.03;1.30;;;;;;;;;;5002300;28;20050;-56
2021/11/26 14:52:42;;;;;;;3.25;1.30;;;;;;;;;;4983524;28;20070;-55